sensor_id;sensor_type;location;lat;lon;timestamp;P1;durP1;ratioP1;P2;durP2;ratioP2
11931;SDS011;6025;51.368;6.788;2023-07-13T00:03:45;4.72;;;1.50;;
11931;SDS011;6025;51.368;6.788;2023-07-13T00:08:36;4.30;;;1.60;;
11931;SDS011;6025;51.368;6.788;2023-07-13T00:13:29;5.85;;;1.58;;
11931;SDS011;6025;51.368;6.788;2023-07-13T00:18:21;3.60;;;1.55;;
11931;SDS011;6025;51.368;6.788;2023-07-13T00:23:14;5.78;;;1.58;;
11931;SDS011;6025;51.368;6.788;2023-07-13T00:28:07;4.55;;;1.45;;
11931;SDS011;6025;51.368;6.788;2023-07-13T00:32:58;6.63;;;1.80;;
11931;SDS011;6025;51.368;6.788;2023-07-13T00:37:51;6.47;;;1.60;;
11931;SDS011;6025;51.368;6.788;2023-07-13T00:42:44;6.18;;;1.67;;
11931;SDS011;6025;51.368;6.788;2023-07-13T00:47:35;4.75;;;1.95;;
11931;SDS011;6025;51.368;6.788;2023-07-13T00:52:27;5.50;;;1.60;;
11931;SDS011;6025;51.368;6.788;2023-07-13T00:57:19;4.05;;;1.50;;
11931;SDS011;6025;51.368;6.788;2023-07-13T01:02:12;5.10;;;1.77;;
11931;SDS011;6025;51.368;6.788;2023-07-13T01:07:04;4.53;;;1.65;;
11931;SDS011;6025;51.368;6.788;2023-07-13T01:11:57;4.97;;;1.70;;
11931;SDS011;6025;51.368;6.788;2023-07-13T01:16:49;2.28;;;1.58;;
11931;SDS011;6025;51.368;6.788;2023-07-13T01:21:42;6.38;;;1.60;;
11931;SDS011;6025;51.368;6.788;2023-07-13T01:26:34;5.75;;;1.42;;
11931;SDS011;6025;51.368;6.788;2023-07-13T01:31:25;4.53;;;1.60;;
11931;SDS011;6025;51.368;6.788;2023-07-13T01:36:17;2.83;;;1.42;;
11931;SDS011;6025;51.368;6.788;2023-07-13T01:41:12;3.63;;;1.33;;
11931;SDS011;6025;51.368;6.788;2023-07-13T01:46:04;5.75;;;1.60;;
11931;SDS011;6025;51.368;6.788;2023-07-13T01:50:55;4.28;;;1.50;;
11931;SDS011;6025;51.368;6.788;2023-07-13T01:55:47;3.03;;;1.58;;
11931;SDS011;6025;51.368;6.788;2023-07-13T02:00:40;5.53;;;1.58;;
11931;SDS011;6025;51.368;6.788;2023-07-13T02:05:31;6.18;;;1.67;;
11931;SDS011;6025;51.368;6.788;2023-07-13T02:10:23;4.97;;;1.83;;
11931;SDS011;6025;51.368;6.788;2023-07-13T02:15:14;5.32;;;1.73;;
11931;SDS011;6025;51.368;6.788;2023-07-13T02:20:07;4.53;;;1.83;;
11931;SDS011;6025;51.368;6.788;2023-07-13T02:24:59;5.82;;;1.55;;
11931;SDS011;6025;51.368;6.788;2023-07-13T02:29:51;4.32;;;1.73;;
11931;SDS011;6025;51.368;6.788;2023-07-13T02:34:43;6.03;;;1.55;;
11931;SDS011;6025;51.368;6.788;2023-07-13T02:39:36;4.22;;;2.00;;
11931;SDS011;6025;51.368;6.788;2023-07-13T02:44:27;5.07;;;1.70;;
11931;SDS011;6025;51.368;6.788;2023-07-13T02:49:19;3.90;;;1.45;;
11931;SDS011;6025;51.368;6.788;2023-07-13T02:54:10;5.00;;;1.70;;
11931;SDS011;6025;51.368;6.788;2023-07-13T02:59:05;5.28;;;1.83;;
11931;SDS011;6025;51.368;6.788;2023-07-13T03:03:56;5.57;;;1.52;;
11931;SDS011;6025;51.368;6.788;2023-07-13T03:08:48;3.78;;;1.50;;
11931;SDS011;6025;51.368;6.788;2023-07-13T03:13:40;4.45;;;2.33;;
11931;SDS011;6025;51.368;6.788;2023-07-13T03:18:34;6.32;;;1.90;;
11931;SDS011;6025;51.368;6.788;2023-07-13T03:23:26;5.43;;;1.70;;
11931;SDS011;6025;51.368;6.788;2023-07-13T03:28:18;5.60;;;2.00;;
11931;SDS011;6025;51.368;6.788;2023-07-13T03:33:10;4.25;;;1.52;;
11931;SDS011;6025;51.368;6.788;2023-07-13T03:38:02;5.43;;;1.60;;
11931;SDS011;6025;51.368;6.788;2023-07-13T03:42:54;4.60;;;1.67;;
11931;SDS011;6025;51.368;6.788;2023-07-13T03:47:46;7.90;;;1.70;;
11931;SDS011;6025;51.368;6.788;2023-07-13T03:52:37;4.65;;;2.00;;
11931;SDS011;6025;51.368;6.788;2023-07-13T03:57:30;6.03;;;1.80;;
11931;SDS011;6025;51.368;6.788;2023-07-13T04:02:21;5.45;;;1.60;;
11931;SDS011;6025;51.368;6.788;2023-07-13T04:07:13;3.38;;;1.63;;
11931;SDS011;6025;51.368;6.788;2023-07-13T04:12:05;5.65;;;1.75;;
11931;SDS011;6025;51.368;6.788;2023-07-13T04:16:58;5.28;;;1.67;;
11931;SDS011;6025;51.368;6.788;2023-07-13T04:21:50;4.93;;;1.52;;
11931;SDS011;6025;51.368;6.788;2023-07-13T04:26:41;4.93;;;1.60;;
11931;SDS011;6025;51.368;6.788;2023-07-13T04:31:34;4.88;;;1.70;;
11931;SDS011;6025;51.368;6.788;2023-07-13T04:36:26;5.50;;;1.80;;
11931;SDS011;6025;51.368;6.788;2023-07-13T04:41:18;7.95;;;1.70;;
11931;SDS011;6025;51.368;6.788;2023-07-13T04:46:11;6.22;;;2.08;;
11931;SDS011;6025;51.368;6.788;2023-07-13T04:51:03;3.55;;;1.70;;
11931;SDS011;6025;51.368;6.788;2023-07-13T04:55:56;4.68;;;1.92;;
11931;SDS011;6025;51.368;6.788;2023-07-13T05:00:48;3.50;;;1.80;;
11931;SDS011;6025;51.368;6.788;2023-07-13T05:05:40;5.07;;;1.60;;
11931;SDS011;6025;51.368;6.788;2023-07-13T05:10:31;6.10;;;2.00;;
11931;SDS011;6025;51.368;6.788;2023-07-13T05:15:24;4.45;;;1.52;;
11931;SDS011;6025;51.368;6.788;2023-07-13T05:20:16;5.50;;;1.80;;
11931;SDS011;6025;51.368;6.788;2023-07-13T05:25:09;7.65;;;2.30;;
11931;SDS011;6025;51.368;6.788;2023-07-13T05:30:01;7.35;;;1.92;;
11931;SDS011;6025;51.368;6.788;2023-07-13T05:34:55;6.18;;;2.00;;
11931;SDS011;6025;51.368;6.788;2023-07-13T05:39:46;6.90;;;1.80;;
11931;SDS011;6025;51.368;6.788;2023-07-13T05:44:38;7.38;;;1.92;;
11931;SDS011;6025;51.368;6.788;2023-07-13T05:49:30;7.70;;;2.10;;
11931;SDS011;6025;51.368;6.788;2023-07-13T05:54:23;6.65;;;2.25;;
11931;SDS011;6025;51.368;6.788;2023-07-13T05:59:14;6.80;;;2.25;;
11931;SDS011;6025;51.368;6.788;2023-07-13T06:04:06;8.60;;;2.60;;
11931;SDS011;6025;51.368;6.788;2023-07-13T06:08:57;7.05;;;2.00;;
11931;SDS011;6025;51.368;6.788;2023-07-13T06:13:50;7.15;;;2.80;;
11931;SDS011;6025;51.368;6.788;2023-07-13T06:18:42;6.70;;;2.60;;
11931;SDS011;6025;51.368;6.788;2023-07-13T06:23:33;8.98;;;2.45;;
11931;SDS011;6025;51.368;6.788;2023-07-13T06:28:25;5.20;;;2.65;;
11931;SDS011;6025;51.368;6.788;2023-07-13T06:33:18;8.90;;;3.33;;
11931;SDS011;6025;51.368;6.788;2023-07-13T06:38:09;11.35;;;3.28;;
11931;SDS011;6025;51.368;6.788;2023-07-13T06:43:01;8.55;;;2.88;;
11931;SDS011;6025;51.368;6.788;2023-07-13T06:47:52;10.65;;;3.10;;
11931;SDS011;6025;51.368;6.788;2023-07-13T06:52:45;8.98;;;3.20;;
11931;SDS011;6025;51.368;6.788;2023-07-13T06:57:37;7.18;;;3.08;;
11931;SDS011;6025;51.368;6.788;2023-07-13T07:02:28;7.88;;;2.97;;
11931;SDS011;6025;51.368;6.788;2023-07-13T07:07:20;11.50;;;3.42;;
11931;SDS011;6025;51.368;6.788;2023-07-13T07:12:16;9.73;;;3.40;;
11931;SDS011;6025;51.368;6.788;2023-07-13T07:17:07;13.45;;;3.30;;
11931;SDS011;6025;51.368;6.788;2023-07-13T07:21:59;11.35;;;3.42;;
11931;SDS011;6025;51.368;6.788;2023-07-13T07:26:50;10.40;;;3.55;;
11931;SDS011;6025;51.368;6.788;2023-07-13T07:31:43;9.75;;;3.22;;
11931;SDS011;6025;51.368;6.788;2023-07-13T07:36:35;8.63;;;3.10;;
11931;SDS011;6025;51.368;6.788;2023-07-13T07:41:26;5.15;;;2.67;;
11931;SDS011;6025;51.368;6.788;2023-07-13T07:46:18;9.77;;;3.33;;
11931;SDS011;6025;51.368;6.788;2023-07-13T07:51:11;7.18;;;2.88;;
11931;SDS011;6025;51.368;6.788;2023-07-13T07:56:02;9.05;;;3.20;;
11931;SDS011;6025;51.368;6.788;2023-07-13T08:00:54;9.70;;;2.67;;
11931;SDS011;6025;51.368;6.788;2023-07-13T08:05:53;6.15;;;2.80;;
11931;SDS011;6025;51.368;6.788;2023-07-13T08:10:46;7.43;;;3.30;;
11931;SDS011;6025;51.368;6.788;2023-07-13T08:15:38;8.93;;;2.67;;
11931;SDS011;6025;51.368;6.788;2023-07-13T08:20:30;11.60;;;3.45;;
11931;SDS011;6025;51.368;6.788;2023-07-13T08:25:21;8.65;;;2.88;;
11931;SDS011;6025;51.368;6.788;2023-07-13T08:30:14;9.30;;;3.40;;
11931;SDS011;6025;51.368;6.788;2023-07-13T08:35:07;9.35;;;3.10;;
11931;SDS011;6025;51.368;6.788;2023-07-13T08:39:58;9.60;;;3.03;;
11931;SDS011;6025;51.368;6.788;2023-07-13T08:44:52;8.05;;;3.10;;
11931;SDS011;6025;51.368;6.788;2023-07-13T08:49:49;7.85;;;2.30;;
11931;SDS011;6025;51.368;6.788;2023-07-13T08:54:43;15.20;;;3.03;;
11931;SDS011;6025;51.368;6.788;2023-07-13T08:59:37;6.82;;;2.35;;
11931;SDS011;6025;51.368;6.788;2023-07-13T09:04:29;7.60;;;2.95;;
11931;SDS011;6025;51.368;6.788;2023-07-13T09:09:26;6.22;;;2.67;;
11931;SDS011;6025;51.368;6.788;2023-07-13T09:14:26;8.63;;;3.30;;
11931;SDS011;6025;51.368;6.788;2023-07-13T09:19:26;8.65;;;2.95;;
11931;SDS011;6025;51.368;6.788;2023-07-13T09:29:32;7.05;;;2.78;;
11931;SDS011;6025;51.368;6.788;2023-07-13T09:34:25;9.63;;;3.00;;
11931;SDS011;6025;51.368;6.788;2023-07-13T09:39:21;11.50;;;3.38;;
11931;SDS011;6025;51.368;6.788;2023-07-13T09:44:18;9.55;;;2.97;;
11931;SDS011;6025;51.368;6.788;2023-07-13T09:49:23;7.35;;;3.10;;
11931;SDS011;6025;51.368;6.788;2023-07-13T09:54:18;10.32;;;2.70;;
11931;SDS011;6025;51.368;6.788;2023-07-13T09:59:19;8.63;;;2.60;;
11931;SDS011;6025;51.368;6.788;2023-07-13T10:04:12;7.15;;;2.55;;
11931;SDS011;6025;51.368;6.788;2023-07-13T10:09:04;5.88;;;2.30;;
11931;SDS011;6025;51.368;6.788;2023-07-13T10:13:59;6.60;;;2.75;;
11931;SDS011;6025;51.368;6.788;2023-07-13T10:18:55;8.85;;;2.45;;
11931;SDS011;6025;51.368;6.788;2023-07-13T10:23:48;6.47;;;2.40;;
11931;SDS011;6025;51.368;6.788;2023-07-13T10:28:42;7.38;;;2.58;;
11931;SDS011;6025;51.368;6.788;2023-07-13T10:33:37;8.27;;;2.55;;
11931;SDS011;6025;51.368;6.788;2023-07-13T10:38:30;7.30;;;2.75;;
11931;SDS011;6025;51.368;6.788;2023-07-13T10:43:23;7.95;;;2.80;;
11931;SDS011;6025;51.368;6.788;2023-07-13T10:48:17;6.50;;;2.20;;
11931;SDS011;6025;51.368;6.788;2023-07-13T10:53:18;6.57;;;2.58;;
11931;SDS011;6025;51.368;6.788;2023-07-13T10:58:18;7.95;;;2.40;;
11931;SDS011;6025;51.368;6.788;2023-07-13T11:03:10;6.32;;;2.42;;
11931;SDS011;6025;51.368;6.788;2023-07-13T11:08:13;11.43;;;2.17;;
11931;SDS011;6025;51.368;6.788;2023-07-13T11:13:27;5.03;;;2.13;;
11931;SDS011;6025;51.368;6.788;2023-07-13T11:18:48;4.80;;;2.17;;
11931;SDS011;6025;51.368;6.788;2023-07-13T11:23:41;7.18;;;2.22;;
11931;SDS011;6025;51.368;6.788;2023-07-13T11:28:41;6.30;;;1.88;;
11931;SDS011;6025;51.368;6.788;2023-07-13T11:38:51;4.00;;;1.70;;
11931;SDS011;6025;51.368;6.788;2023-07-13T11:43:50;5.70;;;2.13;;
11931;SDS011;6025;51.368;6.788;2023-07-13T11:48:42;5.88;;;2.38;;
11931;SDS011;6025;51.368;6.788;2023-07-13T11:53:38;4.10;;;1.70;;
11931;SDS011;6025;51.368;6.788;2023-07-13T11:58:31;6.43;;;2.00;;
11931;SDS011;6025;51.368;6.788;2023-07-13T12:03:24;5.72;;;2.10;;
11931;SDS011;6025;51.368;6.788;2023-07-13T12:08:16;5.70;;;1.92;;
11931;SDS011;6025;51.368;6.788;2023-07-13T12:13:09;4.85;;;1.92;;
11931;SDS011;6025;51.368;6.788;2023-07-13T12:18:09;6.30;;;1.83;;
11931;SDS011;6025;51.368;6.788;2023-07-13T12:23:05;4.25;;;1.80;;
11931;SDS011;6025;51.368;6.788;2023-07-13T12:27:57;4.82;;;1.67;;
11931;SDS011;6025;51.368;6.788;2023-07-13T12:32:55;6.53;;;1.70;;
11931;SDS011;6025;51.368;6.788;2023-07-13T12:37:47;6.18;;;1.73;;
11931;SDS011;6025;51.368;6.788;2023-07-13T12:42:40;5.20;;;1.98;;
11931;SDS011;6025;51.368;6.788;2023-07-13T12:47:38;3.70;;;1.80;;
11931;SDS011;6025;51.368;6.788;2023-07-13T12:52:31;3.72;;;1.60;;
11931;SDS011;6025;51.368;6.788;2023-07-13T12:57:25;4.95;;;1.88;;
11931;SDS011;6025;51.368;6.788;2023-07-13T13:02:28;5.50;;;1.90;;
11931;SDS011;6025;51.368;6.788;2023-07-13T13:07:21;6.38;;;1.95;;
11931;SDS011;6025;51.368;6.788;2023-07-13T13:12:13;5.05;;;1.70;;
11931;SDS011;6025;51.368;6.788;2023-07-13T13:17:07;5.38;;;2.70;;
11931;SDS011;6025;51.368;6.788;2023-07-13T13:22:10;5.97;;;2.22;;
11931;SDS011;6025;51.368;6.788;2023-07-13T13:27:02;5.13;;;1.92;;
11931;SDS011;6025;51.368;6.788;2023-07-13T13:31:54;3.35;;;1.88;;
11931;SDS011;6025;51.368;6.788;2023-07-13T13:36:46;4.03;;;1.60;;
11931;SDS011;6025;51.368;6.788;2023-07-13T13:41:39;6.75;;;2.08;;
11931;SDS011;6025;51.368;6.788;2023-07-13T13:46:31;6.05;;;1.77;;
11931;SDS011;6025;51.368;6.788;2023-07-13T13:51:23;2.67;;;1.50;;
11931;SDS011;6025;51.368;6.788;2023-07-13T13:56:15;6.05;;;1.80;;
11931;SDS011;6025;51.368;6.788;2023-07-13T14:01:13;2.55;;;1.58;;
11931;SDS011;6025;51.368;6.788;2023-07-13T14:06:08;5.80;;;1.70;;
11931;SDS011;6025;51.368;6.788;2023-07-13T14:11:02;6.25;;;1.92;;
11931;SDS011;6025;51.368;6.788;2023-07-13T14:15:54;4.03;;;1.50;;
11931;SDS011;6025;51.368;6.788;2023-07-13T14:20:48;6.30;;;1.90;;
11931;SDS011;6025;51.368;6.788;2023-07-13T14:25:42;6.60;;;2.08;;
11931;SDS011;6025;51.368;6.788;2023-07-13T14:30:34;4.43;;;1.88;;
11931;SDS011;6025;51.368;6.788;2023-07-13T14:35:25;4.05;;;1.48;;
11931;SDS011;6025;51.368;6.788;2023-07-13T14:40:19;7.30;;;2.25;;
11931;SDS011;6025;51.368;6.788;2023-07-13T14:45:16;4.00;;;2.10;;
11931;SDS011;6025;51.368;6.788;2023-07-13T14:50:18;4.38;;;2.10;;
11931;SDS011;6025;51.368;6.788;2023-07-13T14:55:11;5.38;;;2.20;;
11931;SDS011;6025;51.368;6.788;2023-07-13T15:00:07;5.40;;;1.95;;
11931;SDS011;6025;51.368;6.788;2023-07-13T15:05:05;12.10;;;3.13;;
11931;SDS011;6025;51.368;6.788;2023-07-13T15:10:08;8.13;;;3.78;;
11931;SDS011;6025;51.368;6.788;2023-07-13T15:15:06;9.50;;;3.60;;
11931;SDS011;6025;51.368;6.788;2023-07-13T15:19:58;3.85;;;2.70;;
11931;SDS011;6025;51.368;6.788;2023-07-13T15:24:50;5.82;;;2.80;;
11931;SDS011;6025;51.368;6.788;2023-07-13T15:29:41;6.53;;;2.88;;
11931;SDS011;6025;51.368;6.788;2023-07-13T15:34:36;4.25;;;2.05;;
11931;SDS011;6025;51.368;6.788;2023-07-13T15:39:27;15.48;;;2.55;;
11931;SDS011;6025;51.368;6.788;2023-07-13T15:44:25;9.30;;;4.57;;
11931;SDS011;6025;51.368;6.788;2023-07-13T15:49:18;7.22;;;4.25;;
11931;SDS011;6025;51.368;6.788;2023-07-13T15:54:12;6.53;;;3.42;;
11931;SDS011;6025;51.368;6.788;2023-07-13T15:59:04;5.22;;;2.40;;
11931;SDS011;6025;51.368;6.788;2023-07-13T16:03:56;5.82;;;2.08;;
11931;SDS011;6025;51.368;6.788;2023-07-13T16:08:48;4.80;;;2.70;;
11931;SDS011;6025;51.368;6.788;2023-07-13T16:13:42;4.13;;;2.42;;
11931;SDS011;6025;51.368;6.788;2023-07-13T16:18:35;4.05;;;2.40;;
11931;SDS011;6025;51.368;6.788;2023-07-13T16:23:26;5.75;;;2.20;;
11931;SDS011;6025;51.368;6.788;2023-07-13T16:28:20;3.67;;;2.13;;
11931;SDS011;6025;51.368;6.788;2023-07-13T16:33:12;6.53;;;2.58;;
11931;SDS011;6025;51.368;6.788;2023-07-13T16:38:08;4.03;;;2.75;;
11931;SDS011;6025;51.368;6.788;2023-07-13T16:43:05;5.13;;;3.20;;
11931;SDS011;6025;51.368;6.788;2023-07-13T16:47:57;8.70;;;3.50;;
11931;SDS011;6025;51.368;6.788;2023-07-13T16:52:51;5.40;;;2.80;;
11931;SDS011;6025;51.368;6.788;2023-07-13T16:57:44;4.88;;;2.80;;
11931;SDS011;6025;51.368;6.788;2023-07-13T17:02:38;5.18;;;2.67;;
11931;SDS011;6025;51.368;6.788;2023-07-13T17:07:29;3.17;;;2.15;;
11931;SDS011;6025;51.368;6.788;2023-07-13T17:12:23;2.90;;;1.80;;
11931;SDS011;6025;51.368;6.788;2023-07-13T17:17:15;2.38;;;1.52;;
11931;SDS011;6025;51.368;6.788;2023-07-13T17:22:09;4.60;;;1.70;;
11931;SDS011;6025;51.368;6.788;2023-07-13T17:27:08;4.68;;;1.63;;
11931;SDS011;6025;51.368;6.788;2023-07-13T17:32:00;3.85;;;1.80;;
11931;SDS011;6025;51.368;6.788;2023-07-13T17:36:53;3.15;;;1.80;;
11931;SDS011;6025;51.368;6.788;2023-07-13T17:41:44;4.22;;;1.80;;
11931;SDS011;6025;51.368;6.788;2023-07-13T17:46:36;3.15;;;1.52;;
11931;SDS011;6025;51.368;6.788;2023-07-13T17:51:30;2.95;;;1.73;;
11931;SDS011;6025;51.368;6.788;2023-07-13T17:56:21;4.45;;;1.70;;
11931;SDS011;6025;51.368;6.788;2023-07-13T18:01:16;4.00;;;1.58;;
11931;SDS011;6025;51.368;6.788;2023-07-13T18:06:11;4.18;;;1.70;;
11931;SDS011;6025;51.368;6.788;2023-07-13T18:11:08;5.63;;;1.77;;
11931;SDS011;6025;51.368;6.788;2023-07-13T18:16:00;3.97;;;1.73;;
11931;SDS011;6025;51.368;6.788;2023-07-13T18:20:51;2.78;;;1.80;;
11931;SDS011;6025;51.368;6.788;2023-07-13T18:25:44;4.22;;;1.90;;
11931;SDS011;6025;51.368;6.788;2023-07-13T18:30:39;3.22;;;1.85;;
11931;SDS011;6025;51.368;6.788;2023-07-13T18:35:31;4.10;;;1.95;;
11931;SDS011;6025;51.368;6.788;2023-07-13T18:40:25;3.88;;;2.20;;
11931;SDS011;6025;51.368;6.788;2023-07-13T18:45:17;5.47;;;2.20;;
11931;SDS011;6025;51.368;6.788;2023-07-13T18:50:14;2.95;;;1.90;;
11931;SDS011;6025;51.368;6.788;2023-07-13T18:55:12;4.30;;;2.20;;
11931;SDS011;6025;51.368;6.788;2023-07-13T19:00:05;3.67;;;2.03;;
11931;SDS011;6025;51.368;6.788;2023-07-13T19:04:58;3.45;;;2.10;;
11931;SDS011;6025;51.368;6.788;2023-07-13T19:09:52;2.47;;;1.95;;
11931;SDS011;6025;51.368;6.788;2023-07-13T19:14:44;3.38;;;2.70;;
11931;SDS011;6025;51.368;6.788;2023-07-13T19:19:37;3.22;;;2.15;;
11931;SDS011;6025;51.368;6.788;2023-07-13T19:24:28;4.15;;;2.20;;
11931;SDS011;6025;51.368;6.788;2023-07-13T19:29:23;3.33;;;1.90;;
11931;SDS011;6025;51.368;6.788;2023-07-13T19:34:17;3.67;;;2.10;;
11931;SDS011;6025;51.368;6.788;2023-07-13T19:39:12;5.10;;;1.95;;
11931;SDS011;6025;51.368;6.788;2023-07-13T19:44:11;4.05;;;2.33;;
11931;SDS011;6025;51.368;6.788;2023-07-13T19:49:05;4.07;;;2.00;;
11931;SDS011;6025;51.368;6.788;2023-07-13T19:53:58;4.57;;;2.00;;
11931;SDS011;6025;51.368;6.788;2023-07-13T19:58:51;4.43;;;2.10;;
11931;SDS011;6025;51.368;6.788;2023-07-13T20:03:43;4.70;;;2.60;;
11931;SDS011;6025;51.368;6.788;2023-07-13T20:08:36;4.00;;;1.92;;
11931;SDS011;6025;51.368;6.788;2023-07-13T20:13:27;3.38;;;2.15;;
11931;SDS011;6025;51.368;6.788;2023-07-13T20:18:22;3.97;;;2.30;;
11931;SDS011;6025;51.368;6.788;2023-07-13T20:23:14;3.53;;;2.15;;
11931;SDS011;6025;51.368;6.788;2023-07-13T20:28:08;2.20;;;2.00;;
11931;SDS011;6025;51.368;6.788;2023-07-13T20:33:00;4.10;;;2.42;;
11931;SDS011;6025;51.368;6.788;2023-07-13T20:37:53;2.83;;;2.08;;
11931;SDS011;6025;51.368;6.788;2023-07-13T20:42:44;3.25;;;2.33;;
11931;SDS011;6025;51.368;6.788;2023-07-13T20:47:37;4.50;;;2.10;;
11931;SDS011;6025;51.368;6.788;2023-07-13T20:52:30;4.25;;;2.20;;
11931;SDS011;6025;51.368;6.788;2023-07-13T20:57:21;3.40;;;2.15;;
11931;SDS011;6025;51.368;6.788;2023-07-13T21:02:21;3.58;;;2.20;;
11931;SDS011;6025;51.368;6.788;2023-07-13T21:07:18;3.53;;;2.10;;
11931;SDS011;6025;51.368;6.788;2023-07-13T21:12:10;5.72;;;2.25;;
11931;SDS011;6025;51.368;6.788;2023-07-13T21:17:02;5.90;;;2.33;;
11931;SDS011;6025;51.368;6.788;2023-07-13T21:21:53;3.92;;;2.30;;
11931;SDS011;6025;51.368;6.788;2023-07-13T21:26:46;4.28;;;2.33;;
11931;SDS011;6025;51.368;6.788;2023-07-13T21:31:38;9.50;;;2.35;;
11931;SDS011;6025;51.368;6.788;2023-07-13T21:36:29;6.70;;;2.40;;
11931;SDS011;6025;51.368;6.788;2023-07-13T21:41:23;4.18;;;2.20;;
11931;SDS011;6025;51.368;6.788;2023-07-13T21:46:18;4.88;;;2.40;;
11931;SDS011;6025;51.368;6.788;2023-07-13T21:51:14;4.07;;;2.22;;
11931;SDS011;6025;51.368;6.788;2023-07-13T21:56:08;5.55;;;2.33;;
11931;SDS011;6025;51.368;6.788;2023-07-13T22:01:00;3.25;;;2.30;;
11931;SDS011;6025;51.368;6.788;2023-07-13T22:05:55;3.70;;;2.33;;
11931;SDS011;6025;51.368;6.788;2023-07-13T22:10:47;4.60;;;2.25;;
11931;SDS011;6025;51.368;6.788;2023-07-13T22:15:39;3.65;;;2.10;;
11931;SDS011;6025;51.368;6.788;2023-07-13T22:20:31;6.63;;;2.33;;
11931;SDS011;6025;51.368;6.788;2023-07-13T22:25:24;2.63;;;2.33;;
11931;SDS011;6025;51.368;6.788;2023-07-13T22:30:17;4.28;;;2.10;;
11931;SDS011;6025;51.368;6.788;2023-07-13T22:35:10;5.18;;;2.38;;
11931;SDS011;6025;51.368;6.788;2023-07-13T22:40:03;5.13;;;2.60;;
11931;SDS011;6025;51.368;6.788;2023-07-13T22:45:01;6.20;;;2.65;;
11931;SDS011;6025;51.368;6.788;2023-07-13T22:49:52;5.63;;;2.42;;
11931;SDS011;6025;51.368;6.788;2023-07-13T22:54:44;5.38;;;2.50;;
11931;SDS011;6025;51.368;6.788;2023-07-13T22:59:37;4.45;;;2.47;;
11931;SDS011;6025;51.368;6.788;2023-07-13T23:04:32;8.73;;;2.60;;
11931;SDS011;6025;51.368;6.788;2023-07-13T23:09:25;4.57;;;2.88;;
11931;SDS011;6025;51.368;6.788;2023-07-13T23:14:17;5.53;;;2.78;;
11931;SDS011;6025;51.368;6.788;2023-07-13T23:19:11;4.72;;;2.60;;
11931;SDS011;6025;51.368;6.788;2023-07-13T23:24:12;6.15;;;2.67;;
11931;SDS011;6025;51.368;6.788;2023-07-13T23:29:04;5.00;;;2.80;;
11931;SDS011;6025;51.368;6.788;2023-07-13T23:33:55;4.95;;;2.70;;
11931;SDS011;6025;51.368;6.788;2023-07-13T23:38:47;4.10;;;2.63;;
11931;SDS011;6025;51.368;6.788;2023-07-13T23:43:40;5.38;;;2.60;;
11931;SDS011;6025;51.368;6.788;2023-07-13T23:48:32;5.35;;;2.67;;
11931;SDS011;6025;51.368;6.788;2023-07-13T23:53:24;5.30;;;2.78;;
11931;SDS011;6025;51.368;6.788;2023-07-13T23:58:16;3.15;;;2.70;;
